sensor_id;sensor_type;location;lat;lon;timestamp;temperature;humidity
35531;DHT22;21637;53.352;-6.356;2023-07-08T00:00:49;17.30;99.90
35531;DHT22;21637;53.352;-6.356;2023-07-08T00:03:16;17.30;99.90
35531;DHT22;21637;53.352;-6.356;2023-07-08T00:05:41;17.40;99.90
35531;DHT22;21637;53.352;-6.356;2023-07-08T00:08:19;17.40;99.90
35531;DHT22;21637;53.352;-6.356;2023-07-08T00:10:45;17.40;99.90
35531;DHT22;21637;53.352;-6.356;2023-07-08T00:13:11;17.50;99.90
35531;DHT22;21637;53.352;-6.356;2023-07-08T00:15:38;17.50;99.90
35531;DHT22;21637;53.352;-6.356;2023-07-08T00:18:15;17.50;99.90
35531;DHT22;21637;53.352;-6.356;2023-07-08T00:20:49;17.60;99.90
35531;DHT22;21637;53.352;-6.356;2023-07-08T00:23:15;17.60;99.90
35531;DHT22;21637;53.352;-6.356;2023-07-08T00:25:41;17.60;99.90
35531;DHT22;21637;53.352;-6.356;2023-07-08T00:28:18;17.70;99.90
35531;DHT22;21637;53.352;-6.356;2023-07-08T00:30:46;17.70;99.90
35531;DHT22;21637;53.352;-6.356;2023-07-08T00:33:12;17.70;99.90
35531;DHT22;21637;53.352;-6.356;2023-07-08T00:35:40;17.70;99.90
35531;DHT22;21637;53.352;-6.356;2023-07-08T00:38:21;17.80;99.90
35531;DHT22;21637;53.352;-6.356;2023-07-08T00:43:36;17.90;99.90
35531;DHT22;21637;53.352;-6.356;2023-07-08T00:46:29;17.90;99.90
35531;DHT22;21637;53.352;-6.356;2023-07-08T00:51:38;18.00;99.90
35531;DHT22;21637;53.352;-6.356;2023-07-08T00:54:14;18.00;99.90
35531;DHT22;21637;53.352;-6.356;2023-07-08T00:59:25;18.10;99.90
35531;DHT22;21637;53.352;-6.356;2023-07-08T01:01:53;18.20;99.90
35531;DHT22;21637;53.352;-6.356;2023-07-08T01:06:50;18.20;99.90
35531;DHT22;21637;53.352;-6.356;2023-07-08T01:09:27;18.30;99.90
35531;DHT22;21637;53.352;-6.356;2023-07-08T01:11:55;18.30;99.90
35531;DHT22;21637;53.352;-6.356;2023-07-08T01:14:25;18.30;99.90
35531;DHT22;21637;53.352;-6.356;2023-07-08T01:16:52;18.40;99.90
35531;DHT22;21637;53.352;-6.356;2023-07-08T01:19:21;18.40;99.90
35531;DHT22;21637;53.352;-6.356;2023-07-08T01:21:58;18.50;99.90
35531;DHT22;21637;53.352;-6.356;2023-07-08T01:24:27;18.50;99.90
35531;DHT22;21637;53.352;-6.356;2023-07-08T01:26:55;18.50;99.90
35531;DHT22;21637;53.352;-6.356;2023-07-08T01:29:22;18.60;99.90
35531;DHT22;21637;53.352;-6.356;2023-07-08T01:31:48;18.60;99.90
35531;DHT22;21637;53.352;-6.356;2023-07-08T01:34:17;18.60;99.90
35531;DHT22;21637;53.352;-6.356;2023-07-08T01:36:53;18.60;99.90
35531;DHT22;21637;53.352;-6.356;2023-07-08T01:39:21;18.70;99.90
35531;DHT22;21637;53.352;-6.356;2023-07-08T01:41:47;18.70;99.90
35531;DHT22;21637;53.352;-6.356;2023-07-08T01:44:32;18.70;99.90
35531;DHT22;21637;53.352;-6.356;2023-07-08T01:47:03;18.80;99.90
35531;DHT22;21637;53.352;-6.356;2023-07-08T01:49:31;18.80;99.90
35531;DHT22;21637;53.352;-6.356;2023-07-08T01:51:57;18.90;99.90
35531;DHT22;21637;53.352;-6.356;2023-07-08T01:54:24;19.00;99.90
35531;DHT22;21637;53.352;-6.356;2023-07-08T01:56:57;19.00;99.90
35531;DHT22;21637;53.352;-6.356;2023-07-08T01:59:24;19.00;99.90
35531;DHT22;21637;53.352;-6.356;2023-07-08T02:01:50;19.00;99.90
35531;DHT22;21637;53.352;-6.356;2023-07-08T02:04:23;19.10;99.90
35531;DHT22;21637;53.352;-6.356;2023-07-08T02:06:59;19.10;99.90
35531;DHT22;21637;53.352;-6.356;2023-07-08T02:09:25;19.10;99.90
35531;DHT22;21637;53.352;-6.356;2023-07-08T02:11:52;19.10;99.90
35531;DHT22;21637;53.352;-6.356;2023-07-08T02:14:18;19.10;99.90
35531;DHT22;21637;53.352;-6.356;2023-07-08T02:16:44;19.10;99.90
35531;DHT22;21637;53.352;-6.356;2023-07-08T02:19:10;19.10;99.90
35531;DHT22;21637;53.352;-6.356;2023-07-08T02:21:37;19.10;99.90
35531;DHT22;21637;53.352;-6.356;2023-07-08T02:24:03;19.10;99.90
35531;DHT22;21637;53.352;-6.356;2023-07-08T02:26:28;19.10;99.90
35531;DHT22;21637;53.352;-6.356;2023-07-08T02:28:57;19.10;99.90
35531;DHT22;21637;53.352;-6.356;2023-07-08T02:31:23;19.20;99.90
35531;DHT22;21637;53.352;-6.356;2023-07-08T02:33:53;19.20;99.90
35531;DHT22;21637;53.352;-6.356;2023-07-08T02:36:19;19.20;99.90
35531;DHT22;21637;53.352;-6.356;2023-07-08T02:38:45;19.20;99.90
35531;DHT22;21637;53.352;-6.356;2023-07-08T02:41:11;19.20;99.90
35531;DHT22;21637;53.352;-6.356;2023-07-08T02:43:38;19.30;99.90
35531;DHT22;21637;53.352;-6.356;2023-07-08T02:46:03;19.30;99.90
35531;DHT22;21637;53.352;-6.356;2023-07-08T02:48:29;19.30;99.90
35531;DHT22;21637;53.352;-6.356;2023-07-08T02:51:02;19.30;99.90
35531;DHT22;21637;53.352;-6.356;2023-07-08T02:53:29;19.30;99.90
35531;DHT22;21637;53.352;-6.356;2023-07-08T02:55:55;19.30;99.90
35531;DHT22;21637;53.352;-6.356;2023-07-08T02:58:21;19.30;99.90
35531;DHT22;21637;53.352;-6.356;2023-07-08T03:00:52;19.20;99.90
35531;DHT22;21637;53.352;-6.356;2023-07-08T03:03:18;19.20;99.90
35531;DHT22;21637;53.352;-6.356;2023-07-08T03:05:43;19.20;99.90
35531;DHT22;21637;53.352;-6.356;2023-07-08T03:08:09;19.20;99.90
35531;DHT22;21637;53.352;-6.356;2023-07-08T03:10:35;19.20;99.90
35531;DHT22;21637;53.352;-6.356;2023-07-08T03:13:00;19.20;99.90
35531;DHT22;21637;53.352;-6.356;2023-07-08T03:15:26;19.20;99.90
35531;DHT22;21637;53.352;-6.356;2023-07-08T03:17:52;19.10;99.90
35531;DHT22;21637;53.352;-6.356;2023-07-08T03:20:23;19.10;99.90
35531;DHT22;21637;53.352;-6.356;2023-07-08T03:22:48;19.10;99.90
35531;DHT22;21637;53.352;-6.356;2023-07-08T03:25:14;19.10;99.90
35531;DHT22;21637;53.352;-6.356;2023-07-08T03:27:40;19.00;99.90
35531;DHT22;21637;53.352;-6.356;2023-07-08T03:30:07;19.00;99.90
35531;DHT22;21637;53.352;-6.356;2023-07-08T03:32:33;19.00;99.90
35531;DHT22;21637;53.352;-6.356;2023-07-08T03:34:59;19.00;99.90
35531;DHT22;21637;53.352;-6.356;2023-07-08T03:37:26;18.90;99.90
35531;DHT22;21637;53.352;-6.356;2023-07-08T03:39:52;18.90;99.90
35531;DHT22;21637;53.352;-6.356;2023-07-08T03:42:18;18.80;99.90
35531;DHT22;21637;53.352;-6.356;2023-07-08T03:44:43;18.80;99.90
35531;DHT22;21637;53.352;-6.356;2023-07-08T03:47:09;18.80;99.90
35531;DHT22;21637;53.352;-6.356;2023-07-08T03:49:35;18.80;99.90
35531;DHT22;21637;53.352;-6.356;2023-07-08T03:52:01;18.70;99.90
35531;DHT22;21637;53.352;-6.356;2023-07-08T03:54:26;18.70;99.90
35531;DHT22;21637;53.352;-6.356;2023-07-08T03:56:52;18.70;99.90
35531;DHT22;21637;53.352;-6.356;2023-07-08T03:59:18;18.70;99.90
35531;DHT22;21637;53.352;-6.356;2023-07-08T04:01:44;18.70;99.90
35531;DHT22;21637;53.352;-6.356;2023-07-08T04:04:13;18.70;99.90
35531;DHT22;21637;53.352;-6.356;2023-07-08T04:06:40;18.70;99.90
35531;DHT22;21637;53.352;-6.356;2023-07-08T04:09:05;18.70;99.90
35531;DHT22;21637;53.352;-6.356;2023-07-08T04:11:32;18.60;99.90
35531;DHT22;21637;53.352;-6.356;2023-07-08T04:13:58;18.70;99.90
35531;DHT22;21637;53.352;-6.356;2023-07-08T04:16:29;18.70;99.90
35531;DHT22;21637;53.352;-6.356;2023-07-08T04:18:56;18.60;99.90
35531;DHT22;21637;53.352;-6.356;2023-07-08T04:21:23;18.60;99.90
35531;DHT22;21637;53.352;-6.356;2023-07-08T04:23:53;18.60;99.90
35531;DHT22;21637;53.352;-6.356;2023-07-08T04:26:21;18.60;99.90
35531;DHT22;21637;53.352;-6.356;2023-07-08T04:28:47;18.70;99.90
35531;DHT22;21637;53.352;-6.356;2023-07-08T04:31:12;18.60;99.90
35531;DHT22;21637;53.352;-6.356;2023-07-08T04:33:38;18.60;99.90
35531;DHT22;21637;53.352;-6.356;2023-07-08T04:36:08;18.60;99.90
35531;DHT22;21637;53.352;-6.356;2023-07-08T04:38:34;18.60;99.90
35531;DHT22;21637;53.352;-6.356;2023-07-08T04:41:02;18.60;99.90
35531;DHT22;21637;53.352;-6.356;2023-07-08T04:43:27;18.60;99.90
35531;DHT22;21637;53.352;-6.356;2023-07-08T04:45:55;18.60;99.90
35531;DHT22;21637;53.352;-6.356;2023-07-08T04:48:22;18.60;99.90
35531;DHT22;21637;53.352;-6.356;2023-07-08T04:50:52;18.50;99.90
35531;DHT22;21637;53.352;-6.356;2023-07-08T04:53:18;18.50;99.90
35531;DHT22;21637;53.352;-6.356;2023-07-08T04:55:53;18.50;99.90
35531;DHT22;21637;53.352;-6.356;2023-07-08T04:58:19;18.50;99.90
35531;DHT22;21637;53.352;-6.356;2023-07-08T05:00:45;18.50;99.90
35531;DHT22;21637;53.352;-6.356;2023-07-08T05:03:11;18.40;99.90
35531;DHT22;21637;53.352;-6.356;2023-07-08T05:05:36;18.50;99.90
35531;DHT22;21637;53.352;-6.356;2023-07-08T05:08:03;18.40;99.90
35531;DHT22;21637;53.352;-6.356;2023-07-08T05:10:28;18.40;99.90
35531;DHT22;21637;53.352;-6.356;2023-07-08T05:12:54;18.40;99.90
35531;DHT22;21637;53.352;-6.356;2023-07-08T05:15:20;18.40;99.90
35531;DHT22;21637;53.352;-6.356;2023-07-08T05:17:45;18.40;99.90
35531;DHT22;21637;53.352;-6.356;2023-07-08T05:20:14;18.40;99.90
35531;DHT22;21637;53.352;-6.356;2023-07-08T05:22:40;18.40;99.90
35531;DHT22;21637;53.352;-6.356;2023-07-08T05:25:06;18.40;99.90
35531;DHT22;21637;53.352;-6.356;2023-07-08T05:27:32;18.40;99.90
35531;DHT22;21637;53.352;-6.356;2023-07-08T05:30:02;18.40;99.90
35531;DHT22;21637;53.352;-6.356;2023-07-08T05:32:28;18.40;99.90
35531;DHT22;21637;53.352;-6.356;2023-07-08T05:34:54;18.40;99.90
35531;DHT22;21637;53.352;-6.356;2023-07-08T05:37:20;18.40;99.90
35531;DHT22;21637;53.352;-6.356;2023-07-08T05:39:53;18.40;99.90
35531;DHT22;21637;53.352;-6.356;2023-07-08T05:42:22;18.40;99.90
35531;DHT22;21637;53.352;-6.356;2023-07-08T05:44:48;18.50;99.90
35531;DHT22;21637;53.352;-6.356;2023-07-08T05:47:14;18.50;99.90
35531;DHT22;21637;53.352;-6.356;2023-07-08T05:49:41;18.50;99.90
35531;DHT22;21637;53.352;-6.356;2023-07-08T05:52:07;18.60;99.90
35531;DHT22;21637;53.352;-6.356;2023-07-08T05:54:40;18.60;99.90
35531;DHT22;21637;53.352;-6.356;2023-07-08T05:57:07;18.70;99.90
35531;DHT22;21637;53.352;-6.356;2023-07-08T05:59:35;18.70;99.90
35531;DHT22;21637;53.352;-6.356;2023-07-08T06:02:01;18.80;99.90
35531;DHT22;21637;53.352;-6.356;2023-07-08T06:04:27;18.80;99.90
35531;DHT22;21637;53.352;-6.356;2023-07-08T06:06:53;18.80;99.90
35531;DHT22;21637;53.352;-6.356;2023-07-08T06:09:19;18.80;99.90
35531;DHT22;21637;53.352;-6.356;2023-07-08T06:11:44;18.80;99.90
35531;DHT22;21637;53.352;-6.356;2023-07-08T06:14:10;18.80;99.90
35531;DHT22;21637;53.352;-6.356;2023-07-08T06:16:36;18.80;99.90
35531;DHT22;21637;53.352;-6.356;2023-07-08T06:19:02;18.80;99.90
35531;DHT22;21637;53.352;-6.356;2023-07-08T06:21:27;18.80;99.90
35531;DHT22;21637;53.352;-6.356;2023-07-08T06:23:53;18.80;99.90
35531;DHT22;21637;53.352;-6.356;2023-07-08T06:26:19;18.90;99.90
35531;DHT22;21637;53.352;-6.356;2023-07-08T06:28:45;18.90;99.90
35531;DHT22;21637;53.352;-6.356;2023-07-08T06:31:10;19.00;99.90
35531;DHT22;21637;53.352;-6.356;2023-07-08T06:33:36;19.00;99.90
35531;DHT22;21637;53.352;-6.356;2023-07-08T06:36:02;19.10;99.90
35531;DHT22;21637;53.352;-6.356;2023-07-08T06:38:28;19.10;99.90
35531;DHT22;21637;53.352;-6.356;2023-07-08T06:40:53;19.10;99.90
35531;DHT22;21637;53.352;-6.356;2023-07-08T06:43:19;19.10;99.90
35531;DHT22;21637;53.352;-6.356;2023-07-08T06:45:45;19.10;99.90
35531;DHT22;21637;53.352;-6.356;2023-07-08T06:48:11;19.00;99.90
35531;DHT22;21637;53.352;-6.356;2023-07-08T06:50:38;19.00;99.90
35531;DHT22;21637;53.352;-6.356;2023-07-08T06:53:04;19.10;99.90
35531;DHT22;21637;53.352;-6.356;2023-07-08T06:55:29;19.10;99.90
35531;DHT22;21637;53.352;-6.356;2023-07-08T06:57:55;19.10;99.90
35531;DHT22;21637;53.352;-6.356;2023-07-08T07:00:21;19.10;99.90
35531;DHT22;21637;53.352;-6.356;2023-07-08T07:02:47;19.10;99.90
35531;DHT22;21637;53.352;-6.356;2023-07-08T07:05:13;19.10;99.90
35531;DHT22;21637;53.352;-6.356;2023-07-08T07:07:39;19.10;99.90
35531;DHT22;21637;53.352;-6.356;2023-07-08T07:10:05;19.10;99.90
35531;DHT22;21637;53.352;-6.356;2023-07-08T07:12:33;19.20;99.90
35531;DHT22;21637;53.352;-6.356;2023-07-08T07:14:59;19.40;99.90
35531;DHT22;21637;53.352;-6.356;2023-07-08T07:17:26;19.60;99.90
35531;DHT22;21637;53.352;-6.356;2023-07-08T07:19:53;19.90;99.90
35531;DHT22;21637;53.352;-6.356;2023-07-08T07:22:19;20.10;99.90
35531;DHT22;21637;53.352;-6.356;2023-07-08T07:24:45;20.20;99.90
35531;DHT22;21637;53.352;-6.356;2023-07-08T07:27:10;20.30;99.90
35531;DHT22;21637;53.352;-6.356;2023-07-08T07:29:47;20.30;99.90
35531;DHT22;21637;53.352;-6.356;2023-07-08T07:32:14;20.20;99.90
35531;DHT22;21637;53.352;-6.356;2023-07-08T07:34:40;20.10;99.90
35531;DHT22;21637;53.352;-6.356;2023-07-08T07:37:11;20.00;99.90
35531;DHT22;21637;53.352;-6.356;2023-07-08T07:39:37;20.00;99.90
35531;DHT22;21637;53.352;-6.356;2023-07-08T07:42:03;19.90;99.90
35531;DHT22;21637;53.352;-6.356;2023-07-08T07:44:28;19.90;99.90
35531;DHT22;21637;53.352;-6.356;2023-07-08T07:46:54;19.80;99.90
35531;DHT22;21637;53.352;-6.356;2023-07-08T07:49:21;19.80;99.90
35531;DHT22;21637;53.352;-6.356;2023-07-08T07:51:46;19.90;99.90
35531;DHT22;21637;53.352;-6.356;2023-07-08T07:54:12;19.90;99.90
35531;DHT22;21637;53.352;-6.356;2023-07-08T07:56:38;19.90;99.90
35531;DHT22;21637;53.352;-6.356;2023-07-08T07:59:04;20.00;99.90
35531;DHT22;21637;53.352;-6.356;2023-07-08T08:01:30;20.10;99.90
35531;DHT22;21637;53.352;-6.356;2023-07-08T08:03:55;20.20;99.90
35531;DHT22;21637;53.352;-6.356;2023-07-08T08:06:21;20.20;99.90
35531;DHT22;21637;53.352;-6.356;2023-07-08T08:08:48;20.20;99.90
35531;DHT22;21637;53.352;-6.356;2023-07-08T08:11:15;20.10;99.90
35531;DHT22;21637;53.352;-6.356;2023-07-08T08:13:41;20.20;99.90
35531;DHT22;21637;53.352;-6.356;2023-07-08T08:16:07;20.30;99.90
35531;DHT22;21637;53.352;-6.356;2023-07-08T08:18:33;20.40;99.90
35531;DHT22;21637;53.352;-6.356;2023-07-08T08:20:59;20.50;99.90
35531;DHT22;21637;53.352;-6.356;2023-07-08T08:23:24;20.40;99.90
35531;DHT22;21637;53.352;-6.356;2023-07-08T08:25:51;20.30;99.90
35531;DHT22;21637;53.352;-6.356;2023-07-08T08:28:17;20.20;99.90
35531;DHT22;21637;53.352;-6.356;2023-07-08T08:30:47;20.30;99.90
35531;DHT22;21637;53.352;-6.356;2023-07-08T08:33:13;20.30;99.90
35531;DHT22;21637;53.352;-6.356;2023-07-08T08:35:39;20.40;99.90
35531;DHT22;21637;53.352;-6.356;2023-07-08T08:38:05;20.50;99.90
35531;DHT22;21637;53.352;-6.356;2023-07-08T08:40:31;20.50;99.90
35531;DHT22;21637;53.352;-6.356;2023-07-08T08:43:18;20.60;99.90
35531;DHT22;21637;53.352;-6.356;2023-07-08T08:45:57;20.60;99.90
35531;DHT22;21637;53.352;-6.356;2023-07-08T08:48:25;20.60;99.90
35531;DHT22;21637;53.352;-6.356;2023-07-08T08:51:14;20.60;99.90
35531;DHT22;21637;53.352;-6.356;2023-07-08T08:53:41;20.50;99.90
35531;DHT22;21637;53.352;-6.356;2023-07-08T08:56:19;20.40;99.90
35531;DHT22;21637;53.352;-6.356;2023-07-08T08:58:56;20.30;99.90
35531;DHT22;21637;53.352;-6.356;2023-07-08T09:01:23;20.30;99.90
35531;DHT22;21637;53.352;-6.356;2023-07-08T09:03:54;20.20;99.90
35531;DHT22;21637;53.352;-6.356;2023-07-08T09:06:25;20.30;99.90
35531;DHT22;21637;53.352;-6.356;2023-07-08T09:08:51;20.30;99.90
35531;DHT22;21637;53.352;-6.356;2023-07-08T09:14:00;20.70;99.90
35531;DHT22;21637;53.352;-6.356;2023-07-08T09:19:22;20.90;99.90
35531;DHT22;21637;53.352;-6.356;2023-07-08T09:21:53;20.90;99.90
35531;DHT22;21637;53.352;-6.356;2023-07-08T09:24:42;20.90;99.90
35531;DHT22;21637;53.352;-6.356;2023-07-08T09:27:08;20.70;99.90
35531;DHT22;21637;53.352;-6.356;2023-07-08T09:29:34;20.60;99.90
35531;DHT22;21637;53.352;-6.356;2023-07-08T09:34:43;20.60;99.90
35531;DHT22;21637;53.352;-6.356;2023-07-08T09:37:23;20.70;99.90
35531;DHT22;21637;53.352;-6.356;2023-07-08T09:39:50;20.70;99.90
35531;DHT22;21637;53.352;-6.356;2023-07-08T09:42:17;20.90;99.90
35531;DHT22;21637;53.352;-6.356;2023-07-08T09:44:45;21.10;99.90
35531;DHT22;21637;53.352;-6.356;2023-07-08T09:47:28;21.20;99.90
35531;DHT22;21637;53.352;-6.356;2023-07-08T09:49:59;21.20;99.90
35531;DHT22;21637;53.352;-6.356;2023-07-08T09:52:25;21.30;99.90
35531;DHT22;21637;53.352;-6.356;2023-07-08T09:54:51;21.40;99.90
35531;DHT22;21637;53.352;-6.356;2023-07-08T09:57:29;21.40;99.90
35531;DHT22;21637;53.352;-6.356;2023-07-08T10:00:06;21.40;99.90
35531;DHT22;21637;53.352;-6.356;2023-07-08T10:05:26;21.50;99.90
35531;DHT22;21637;53.352;-6.356;2023-07-08T10:07:55;21.70;99.90
35531;DHT22;21637;53.352;-6.356;2023-07-08T10:10:34;21.80;99.90
35531;DHT22;21637;53.352;-6.356;2023-07-08T10:13:04;21.90;99.90
35531;DHT22;21637;53.352;-6.356;2023-07-08T10:15:43;22.00;99.90
35531;DHT22;21637;53.352;-6.356;2023-07-08T10:18:17;22.00;99.90
35531;DHT22;21637;53.352;-6.356;2023-07-08T10:21:01;22.10;99.90
35531;DHT22;21637;53.352;-6.356;2023-07-08T10:26:28;22.10;99.90
35531;DHT22;21637;53.352;-6.356;2023-07-08T10:34:39;22.10;99.90
35531;DHT22;21637;53.352;-6.356;2023-07-08T10:40:01;22.30;99.90
35531;DHT22;21637;53.352;-6.356;2023-07-08T10:45:12;22.20;99.90
35531;DHT22;21637;53.352;-6.356;2023-07-08T10:55:51;21.60;99.90
35531;DHT22;21637;53.352;-6.356;2023-07-08T11:06:15;21.60;99.90
35531;DHT22;21637;53.352;-6.356;2023-07-08T11:09:02;21.30;99.90
35531;DHT22;21637;53.352;-6.356;2023-07-08T11:14:33;21.50;99.90
35531;DHT22;21637;53.352;-6.356;2023-07-08T11:17:36;21.50;99.90
35531;DHT22;21637;53.352;-6.356;2023-07-08T11:22:48;21.40;99.90
35531;DHT22;21637;53.352;-6.356;2023-07-08T11:25:20;21.30;99.90
35531;DHT22;21637;53.352;-6.356;2023-07-08T11:27:51;21.40;99.90
35531;DHT22;21637;53.352;-6.356;2023-07-08T11:30:21;21.40;99.90
35531;DHT22;21637;53.352;-6.356;2023-07-08T11:32:48;21.50;99.90
35531;DHT22;21637;53.352;-6.356;2023-07-08T11:35:49;21.50;99.90
35531;DHT22;21637;53.352;-6.356;2023-07-08T11:38:17;21.50;99.90
35531;DHT22;21637;53.352;-6.356;2023-07-08T11:41:12;21.50;99.90
35531;DHT22;21637;53.352;-6.356;2023-07-08T11:44:03;21.50;99.90
35531;DHT22;21637;53.352;-6.356;2023-07-08T11:46:31;21.70;99.90
35531;DHT22;21637;53.352;-6.356;2023-07-08T11:49:12;22.00;99.90
35531;DHT22;21637;53.352;-6.356;2023-07-08T11:51:43;22.30;99.90
35531;DHT22;21637;53.352;-6.356;2023-07-08T11:54:30;22.40;99.90
35531;DHT22;21637;53.352;-6.356;2023-07-08T11:59:28;22.60;99.90
35531;DHT22;21637;53.352;-6.356;2023-07-08T12:04:35;22.70;99.90
35531;DHT22;21637;53.352;-6.356;2023-07-08T12:07:31;22.80;99.90
35531;DHT22;21637;53.352;-6.356;2023-07-08T12:09:59;22.80;99.90
35531;DHT22;21637;53.352;-6.356;2023-07-08T12:12:30;22.60;99.90
35531;DHT22;21637;53.352;-6.356;2023-07-08T12:15:21;22.40;99.90
35531;DHT22;21637;53.352;-6.356;2023-07-08T12:17:48;22.20;99.90
35531;DHT22;21637;53.352;-6.356;2023-07-08T12:20:29;22.10;99.90
35531;DHT22;21637;53.352;-6.356;2023-07-08T12:22:55;22.20;99.90
35531;DHT22;21637;53.352;-6.356;2023-07-08T12:25:25;22.30;99.90
35531;DHT22;21637;53.352;-6.356;2023-07-08T12:27:51;22.50;99.90
35531;DHT22;21637;53.352;-6.356;2023-07-08T12:30:17;22.50;99.90
35531;DHT22;21637;53.352;-6.356;2023-07-08T12:32:44;22.50;99.90
35531;DHT22;21637;53.352;-6.356;2023-07-08T12:35:34;22.40;99.90
35531;DHT22;21637;53.352;-6.356;2023-07-08T12:38:17;22.30;99.90
35531;DHT22;21637;53.352;-6.356;2023-07-08T12:40:43;22.20;99.90
35531;DHT22;21637;53.352;-6.356;2023-07-08T12:43:10;22.10;99.90
35531;DHT22;21637;53.352;-6.356;2023-07-08T12:45:36;22.10;99.90
35531;DHT22;21637;53.352;-6.356;2023-07-08T12:48:03;22.30;99.90
35531;DHT22;21637;53.352;-6.356;2023-07-08T12:50:29;22.40;99.90
35531;DHT22;21637;53.352;-6.356;2023-07-08T12:52:55;22.40;99.90
35531;DHT22;21637;53.352;-6.356;2023-07-08T12:55:22;22.40;99.90
35531;DHT22;21637;53.352;-6.356;2023-07-08T12:57:51;22.40;99.90
35531;DHT22;21637;53.352;-6.356;2023-07-08T13:00:27;22.50;99.90
35531;DHT22;21637;53.352;-6.356;2023-07-08T13:03:03;22.50;99.90
35531;DHT22;21637;53.352;-6.356;2023-07-08T13:05:31;22.50;99.90
35531;DHT22;21637;53.352;-6.356;2023-07-08T13:07:58;22.60;99.90
35531;DHT22;21637;53.352;-6.356;2023-07-08T13:10:25;22.60;99.90
35531;DHT22;21637;53.352;-6.356;2023-07-08T13:12:55;22.70;99.90
35531;DHT22;21637;53.352;-6.356;2023-07-08T13:15:32;22.70;99.90
35531;DHT22;21637;53.352;-6.356;2023-07-08T13:17:59;22.80;99.90
35531;DHT22;21637;53.352;-6.356;2023-07-08T13:20:26;22.70;99.90
35531;DHT22;21637;53.352;-6.356;2023-07-08T13:23:00;22.70;99.90
35531;DHT22;21637;53.352;-6.356;2023-07-08T13:25:31;22.90;99.90
35531;DHT22;21637;53.352;-6.356;2023-07-08T13:28:00;23.00;99.90
35531;DHT22;21637;53.352;-6.356;2023-07-08T13:30:29;23.10;99.90
35531;DHT22;21637;53.352;-6.356;2023-07-08T13:32:59;23.10;99.90
35531;DHT22;21637;53.352;-6.356;2023-07-08T13:35:27;23.30;99.90
35531;DHT22;21637;53.352;-6.356;2023-07-08T13:37:55;23.30;99.90
35531;DHT22;21637;53.352;-6.356;2023-07-08T13:40:20;23.20;99.90
35531;DHT22;21637;53.352;-6.356;2023-07-08T13:42:50;23.30;99.90
35531;DHT22;21637;53.352;-6.356;2023-07-08T13:45:22;23.30;99.90
35531;DHT22;21637;53.352;-6.356;2023-07-08T13:47:59;23.40;99.90
35531;DHT22;21637;53.352;-6.356;2023-07-08T13:50:39;23.20;99.90
35531;DHT22;21637;53.352;-6.356;2023-07-08T13:53:20;23.20;99.90
35531;DHT22;21637;53.352;-6.356;2023-07-08T13:55:47;23.30;99.90
35531;DHT22;21637;53.352;-6.356;2023-07-08T13:58:17;23.30;99.90
35531;DHT22;21637;53.352;-6.356;2023-07-08T14:00:43;23.40;99.90
35531;DHT22;21637;53.352;-6.356;2023-07-08T14:03:11;23.30;99.90
35531;DHT22;21637;53.352;-6.356;2023-07-08T14:05:39;23.30;99.90
35531;DHT22;21637;53.352;-6.356;2023-07-08T14:08:15;23.30;99.90
35531;DHT22;21637;53.352;-6.356;2023-07-08T14:10:42;23.40;99.90
35531;DHT22;21637;53.352;-6.356;2023-07-08T14:13:09;23.60;99.90
35531;DHT22;21637;53.352;-6.356;2023-07-08T14:15:34;23.50;99.90
35531;DHT22;21637;53.352;-6.356;2023-07-08T14:18:01;23.40;99.90
35531;DHT22;21637;53.352;-6.356;2023-07-08T14:20:26;23.40;99.90
35531;DHT22;21637;53.352;-6.356;2023-07-08T14:22:55;23.40;99.90
35531;DHT22;21637;53.352;-6.356;2023-07-08T14:25:21;23.40;99.90
35531;DHT22;21637;53.352;-6.356;2023-07-08T14:27:50;23.30;99.90
35531;DHT22;21637;53.352;-6.356;2023-07-08T14:30:16;23.40;99.90
35531;DHT22;21637;53.352;-6.356;2023-07-08T14:32:42;23.40;99.90
35531;DHT22;21637;53.352;-6.356;2023-07-08T14:35:27;23.30;99.90
35531;DHT22;21637;53.352;-6.356;2023-07-08T14:37:53;23.30;99.90
35531;DHT22;21637;53.352;-6.356;2023-07-08T14:40:29;23.40;99.90
35531;DHT22;21637;53.352;-6.356;2023-07-08T14:43:01;23.40;99.90
35531;DHT22;21637;53.352;-6.356;2023-07-08T14:45:29;23.70;99.90
35531;DHT22;21637;53.352;-6.356;2023-07-08T14:47:55;24.00;99.90
35531;DHT22;21637;53.352;-6.356;2023-07-08T14:50:21;24.00;99.90
35531;DHT22;21637;53.352;-6.356;2023-07-08T14:52:47;24.00;99.90
35531;DHT22;21637;53.352;-6.356;2023-07-08T14:55:13;24.10;99.90
35531;DHT22;21637;53.352;-6.356;2023-07-08T14:57:46;24.40;99.90
35531;DHT22;21637;53.352;-6.356;2023-07-08T15:00:16;24.70;99.90
35531;DHT22;21637;53.352;-6.356;2023-07-08T15:02:44;24.60;99.90
35531;DHT22;21637;53.352;-6.356;2023-07-08T15:05:30;24.30;99.90
35531;DHT22;21637;53.352;-6.356;2023-07-08T15:07:57;24.20;99.90
35531;DHT22;21637;53.352;-6.356;2023-07-08T15:10:25;24.30;99.90
35531;DHT22;21637;53.352;-6.356;2023-07-08T15:12:51;24.60;99.90
35531;DHT22;21637;53.352;-6.356;2023-07-08T15:15:35;24.40;99.90
35531;DHT22;21637;53.352;-6.356;2023-07-08T15:18:06;24.20;99.90
35531;DHT22;21637;53.352;-6.356;2023-07-08T15:20:35;24.50;99.90
35531;DHT22;21637;53.352;-6.356;2023-07-08T15:23:01;24.80;99.90
35531;DHT22;21637;53.352;-6.356;2023-07-08T15:25:27;24.80;99.90
35531;DHT22;21637;53.352;-6.356;2023-07-08T15:27:56;25.10;99.90
35531;DHT22;21637;53.352;-6.356;2023-07-08T15:30:24;25.20;99.90
35531;DHT22;21637;53.352;-6.356;2023-07-08T15:32:51;25.80;99.90
35531;DHT22;21637;53.352;-6.356;2023-07-08T15:35:23;25.90;99.90
35531;DHT22;21637;53.352;-6.356;2023-07-08T15:37:51;25.90;99.90
35531;DHT22;21637;53.352;-6.356;2023-07-08T15:40:19;26.00;99.90
35531;DHT22;21637;53.352;-6.356;2023-07-08T15:42:48;26.30;99.90
35531;DHT22;21637;53.352;-6.356;2023-07-08T15:45:24;26.50;99.90
35531;DHT22;21637;53.352;-6.356;2023-07-08T15:47:51;26.70;99.90
35531;DHT22;21637;53.352;-6.356;2023-07-08T15:50:18;26.80;99.90
35531;DHT22;21637;53.352;-6.356;2023-07-08T15:52:44;27.10;99.90
35531;DHT22;21637;53.352;-6.356;2023-07-08T15:55:12;26.90;99.90
35531;DHT22;21637;53.352;-6.356;2023-07-08T15:57:45;26.70;99.90
35531;DHT22;21637;53.352;-6.356;2023-07-08T16:00:20;26.50;99.90
35531;DHT22;21637;53.352;-6.356;2023-07-08T16:02:53;26.70;99.90
35531;DHT22;21637;53.352;-6.356;2023-07-08T16:05:19;26.70;99.90
35531;DHT22;21637;53.352;-6.356;2023-07-08T16:07:47;26.40;99.90
35531;DHT22;21637;53.352;-6.356;2023-07-08T16:10:14;26.40;99.90
35531;DHT22;21637;53.352;-6.356;2023-07-08T16:12:40;26.20;99.90
35531;DHT22;21637;53.352;-6.356;2023-07-08T16:15:16;26.40;99.90
35531;DHT22;21637;53.352;-6.356;2023-07-08T16:17:42;26.40;99.90
35531;DHT22;21637;53.352;-6.356;2023-07-08T16:20:22;26.80;99.90
35531;DHT22;21637;53.352;-6.356;2023-07-08T16:22:48;26.60;99.90
35531;DHT22;21637;53.352;-6.356;2023-07-08T16:25:16;26.70;99.90
35531;DHT22;21637;53.352;-6.356;2023-07-08T16:27:47;26.80;99.90
35531;DHT22;21637;53.352;-6.356;2023-07-08T16:30:16;26.90;99.90